Marina Lobra — IXVN — position and weather

sailwx.info

Track history (hours):
 
Tides and Currents Weather Stations Pressure Air Temp Water Temp Dewpoint Dewpoint Depression Visibility Wind Speed Wind Dir Waves Ship Positions

Marina Lobra

Last reported at 2014-Oct-15 14:04 UTC. Time now 2014-Oct-25 11:16 UTC.
Position N 40°51' E 014°16'.
Warning: this ship's position is 9 days out of date.

Length 56 m; draft 2.4 m.

Type: Ship (hazmat cat C). MMSI: 247188300.

Date/timePositionNaut miles runAvg speedWind from/ knotsBaromVisibWave heightAir tempDewpointWater temp
2014-Oct-15 14:04N 40°51' E 014°16'1 1.1
2014-Oct-15 13:33N 40°50' E 014°16'0 0.0
2014-Oct-14 12:26N 40°51' E 014°16'0 0.2
2014-Oct-14 10:31N 40°50' E 014°15'1 1.5
2014-Oct-14 09:33N 40°50' E 014°17'0 0.0
2014-Oct-14 08:33N 40°50' E 014°17'1 0.1
2014-Oct-13 15:28N 40°51' E 014°16'0 0.3
2014-Oct-13 14:32N 40°51' E 014°16'0 0.0
2014-Oct-13 13:08N 40°51' E 014°16'1 2.3
2014-Oct-13 12:33N 40°50' E 014°17'0 0.0
2014-Oct-13 11:32N 40°50' E 014°17'0 0.0
2014-Oct-13 10:14N 40°50' E 014°17'0 0.0
2014-Oct-13 09:31N 40°50' E 014°17'0 0.0
2014-Oct-13 08:33N 40°50' E 014°17'0 0.0
2014-Oct-13 06:24N 40°50' E 014°17'  
2014-Oct-10 06:33N 40°51' E 014°16'11 5.3
2014-Oct-10 04:31N 40°40' E 014°17'6 0.6
2014-Oct-09 18:20N 40°34' E 014°15'3 3.5
2014-Oct-09 17:33N 40°37' E 014°15'6 5.1
2014-Oct-09 16:21N 40°43' E 014°17'4 5.3
2014-Oct-09 15:33N 40°47' E 014°18'3 3.4
2014-Oct-09 14:34N 40°50' E 014°17'0 0.0
2014-Oct-09 13:33N 40°50' E 014°17'0 0.0
2014-Oct-09 12:23N 40°50' E 014°17'0 0.0
2014-Oct-09 11:33N 40°50' E 014°17'0 0.0
2014-Oct-09 10:34N 40°50' E 014°17'0 0.0
2014-Oct-09 09:33N 40°50' E 014°17'0 0.0
2014-Oct-09 08:16N 40°50' E 014°17'1 0.1
2014-Oct-08 12:26N 40°51' E 014°16'  
Track history (hours):
 
Tides and Currents Weather Stations Pressure Air Temp Water Temp Dewpoint Dewpoint Depression Visibility Wind Speed Wind Dir Waves Ship Positions

Marina Lobra

Last reported at 2014-Oct-15 14:04 UTC. Time now 2014-Oct-25 11:16 UTC.
Position N 40°51' E 014°16'.
Warning: this ship's position is 9 days out of date.

Length 56 m; draft 2.4 m.

Type: Ship (hazmat cat C). MMSI: 247188300.

Date/timePositionNaut miles runAvg speedWind from/ knotsBaromVisibWave heightAir tempDewpointWater temp
2014-Oct-15 14:04N 40°51' E 014°16'1 1.1
2014-Oct-15 13:33N 40°50' E 014°16'0 0.0
2014-Oct-14 12:26N 40°51' E 014°16'0 0.2
2014-Oct-14 10:31N 40°50' E 014°15'1 1.5
2014-Oct-14 09:33N 40°50' E 014°17'0 0.0
2014-Oct-14 08:33N 40°50' E 014°17'1 0.1
2014-Oct-13 15:28N 40°51' E 014°16'0 0.3
2014-Oct-13 14:32N 40°51' E 014°16'0 0.0
2014-Oct-13 13:08N 40°51' E 014°16'1 2.3
2014-Oct-13 12:33N 40°50' E 014°17'0 0.0
2014-Oct-13 11:32N 40°50' E 014°17'0 0.0
2014-Oct-13 10:14N 40°50' E 014°17'0 0.0
2014-Oct-13 09:31N 40°50' E 014°17'0 0.0
2014-Oct-13 08:33N 40°50' E 014°17'0 0.0
2014-Oct-13 06:24N 40°50' E 014°17'  
2014-Oct-10 06:33N 40°51' E 014°16'11 5.3
2014-Oct-10 04:31N 40°40' E 014°17'6 0.6
2014-Oct-09 18:20N 40°34' E 014°15'3 3.5
2014-Oct-09 17:33N 40°37' E 014°15'6 5.1
2014-Oct-09 16:21N 40°43' E 014°17'4 5.3
2014-Oct-09 15:33N 40°47' E 014°18'3 3.4
2014-Oct-09 14:34N 40°50' E 014°17'0 0.0
2014-Oct-09 13:33N 40°50' E 014°17'0 0.0
2014-Oct-09 12:23N 40°50' E 014°17'0 0.0
2014-Oct-09 11:33N 40°50' E 014°17'0 0.0
2014-Oct-09 10:34N 40°50' E 014°17'0 0.0
2014-Oct-09 09:33N 40°50' E 014°17'0 0.0
2014-Oct-09 08:16N 40°50' E 014°17'1 0.1
2014-Oct-08 12:26N 40°51' E 014°16'  

Dump ship's entire track history